createdAt,value
2018-11-04T00:01:13.497Z,94.07
2018-11-04T00:03:42.803Z,93.99
2018-11-04T00:06:11.854Z,93.71
2018-11-04T00:08:40.527Z,93.87
2018-11-04T00:11:09.434Z,94.37
2018-11-04T00:13:38.573Z,94.64
2018-11-04T00:16:07.866Z,94.43
2018-11-04T00:18:37.425Z,94.52
2018-11-04T00:21:06.372Z,94.39
2018-11-04T00:23:35.714Z,94.36
2018-11-04T00:26:04.752Z,94.53
2018-11-04T00:28:33.682Z,94.50
2018-11-04T00:31:02.467Z,94.66
2018-11-04T00:33:31.458Z,94.57
2018-11-04T00:36:00.273Z,94.63
2018-11-04T00:38:28.952Z,95.14
2018-11-04T00:40:58.206Z,94.71
2018-11-04T00:43:27.387Z,94.45
2018-11-04T00:45:57.367Z,94.24
2018-11-04T00:48:26.124Z,94.22
2018-11-04T00:50:56.023Z,94.09
2018-11-04T00:53:25.544Z,94.04
2018-11-04T00:55:55.046Z,94.05
2018-11-04T00:58:24.728Z,94.53
2018-11-04T01:00:53.954Z,94.69
2018-11-04T01:03:23.189Z,94.48
2018-11-04T01:05:52.285Z,94.72
2018-11-04T01:08:21.163Z,94.60
2018-11-04T01:10:49.969Z,94.47
2018-11-04T01:13:19.071Z,94.38
2018-11-04T01:15:49.309Z,94.49
2018-11-04T01:18:18.470Z,94.22
2018-11-04T01:20:47.414Z,94.40
2018-11-04T01:23:16.096Z,94.60
2018-11-04T01:25:45.093Z,94.67
2018-11-04T01:28:14.647Z,94.58
2018-11-04T01:30:43.647Z,95.02
2018-11-04T01:33:13.029Z,94.81
2018-11-04T01:35:41.731Z,94.73
2018-11-04T01:38:10.374Z,94.65
2018-11-04T01:40:39.459Z,94.55
2018-11-04T01:43:08.752Z,94.91
2018-11-04T01:45:37.396Z,94.91
2018-11-04T01:48:06.340Z,94.61
2018-11-04T01:50:35.501Z,95.18
2018-11-04T01:53:04.057Z,95.00
2018-11-04T01:55:32.957Z,95.08
2018-11-04T01:58:02.077Z,94.82
2018-11-04T02:00:30.974Z,94.70
2018-11-04T02:02:59.815Z,94.95
2018-11-04T02:05:28.796Z,95.01
2018-11-04T02:07:57.689Z,95.11
2018-11-04T02:10:27.328Z,95.30
2018-11-04T02:12:56.144Z,95.07
2018-11-04T02:15:25.424Z,95.30
2018-11-04T02:17:54.089Z,95.54
2018-11-04T02:20:22.834Z,95.30
2018-11-04T02:22:51.488Z,95.45
2018-11-04T02:25:20.759Z,95.47
2018-11-04T02:27:50.851Z,95.57
2018-11-04T02:30:20.134Z,95.54
2018-11-04T02:32:49.313Z,95.49
2018-11-04T02:35:18.500Z,95.35
2018-11-04T02:37:47.349Z,95.49
2018-11-04T02:40:16.999Z,95.30
2018-11-04T02:42:46.493Z,95.26
2018-11-04T02:45:15.383Z,95.28
2018-11-04T02:47:44.933Z,95.30
2018-11-04T02:50:13.834Z,95.63
2018-11-04T02:52:43.065Z,95.97
2018-11-04T02:55:12.222Z,95.84
2018-11-04T02:57:41.533Z,95.85
2018-11-04T03:00:12.863Z,95.65
2018-11-04T03:02:44.194Z,95.55
2018-11-04T03:05:13.215Z,95.63
2018-11-04T03:07:42.936Z,95.48
2018-11-04T03:10:13.397Z,95.37
2018-11-04T03:12:42.209Z,95.69
2018-11-04T03:15:11.148Z,95.54
2018-11-04T03:17:40.107Z,95.37
2018-11-04T03:20:08.775Z,95.63
2018-11-04T03:22:37.674Z,95.68
2018-11-04T03:25:07.345Z,95.86
2018-11-04T03:27:36.183Z,95.85
2018-11-04T03:30:05.388Z,96.31
2018-11-04T03:32:35.614Z,96.30
2018-11-04T03:35:05.204Z,97.04
2018-11-04T03:37:33.964Z,97.04
2018-11-04T03:40:03.028Z,96.91
2018-11-04T03:42:32.469Z,96.78
2018-11-04T03:45:01.258Z,96.25
2018-11-04T03:47:30.887Z,96.17
2018-11-04T03:49:59.999Z,96.16
2018-11-04T03:52:29.403Z,96.20
2018-11-04T03:54:58.722Z,96.39
2018-11-04T03:57:27.493Z,96.41
2018-11-04T03:59:56.970Z,96.32
2018-11-04T04:02:27.178Z,96.72
2018-11-04T04:04:57.340Z,97.14
2018-11-04T04:07:26.554Z,96.95
2018-11-04T04:09:55.444Z,96.56
2018-11-04T04:12:24.164Z,96.55
2018-11-04T04:14:52.904Z,96.74
2018-11-04T04:17:22.762Z,96.62
2018-11-04T04:19:51.667Z,96.28
2018-11-04T04:22:20.964Z,96.44
2018-11-04T04:24:49.848Z,96.39
2018-11-04T04:27:19.469Z,96.22
2018-11-04T04:29:48.220Z,96.20
2018-11-04T04:32:17.449Z,96.33
2018-11-04T04:34:47.143Z,96.45
2018-11-04T04:37:15.879Z,96.25
2018-11-04T04:39:45.512Z,96.29
2018-11-04T04:42:14.159Z,97.03
2018-11-04T04:44:42.893Z,97.46
2018-11-04T04:47:11.787Z,97.22
2018-11-04T04:49:41.379Z,97.17
2018-11-04T04:52:10.612Z,96.88
2018-11-04T04:54:39.749Z,97.08
2018-11-04T04:57:08.948Z,95.18
2018-11-04T04:59:37.669Z,95.78
2018-11-04T05:02:07.449Z,96.18
2018-11-04T05:04:36.957Z,96.47
2018-11-04T05:07:05.835Z,97.07
2018-11-04T05:09:37.373Z,96.67
2018-11-04T05:12:06.664Z,97.04
2018-11-04T05:14:38.494Z,96.68
2018-11-04T05:17:07.627Z,96.72
2018-11-04T05:19:36.989Z,96.27
2018-11-04T05:22:06.390Z,95.55
2018-11-04T05:24:35.433Z,95.36
2018-11-04T05:27:04.787Z,94.75
2018-11-04T05:29:35.400Z,94.38
2018-11-04T05:32:06.100Z,95.05
2018-11-04T05:34:35.164Z,94.83
2018-11-04T05:37:04.519Z,94.61
2018-11-04T05:39:33.676Z,95.00
2018-11-04T05:42:03.127Z,95.20
2018-11-04T05:44:32.137Z,95.38
2018-11-04T05:47:01.256Z,95.38
2018-11-04T05:49:30.156Z,95.48
2018-11-04T05:51:58.755Z,95.01
2018-11-04T05:54:27.721Z,94.98
2018-11-04T05:56:56.309Z,94.97
2018-11-04T05:59:25.334Z,95.26
2018-11-04T06:01:54.050Z,95.42
2018-11-04T06:04:23.010Z,95.70
2018-11-04T06:06:51.644Z,95.84
2018-11-04T06:09:20.381Z,96.11
2018-11-04T06:11:50.636Z,95.87
2018-11-04T06:14:19.641Z,96.08
2018-11-04T06:16:48.411Z,96.01
2018-11-04T06:19:17.208Z,95.96
2018-11-04T06:21:46.492Z,96.10
2018-11-04T06:24:15.635Z,95.74
2018-11-04T06:26:45.044Z,95.85
2018-11-04T06:29:14.140Z,95.43
2018-11-04T06:31:43.067Z,93.73
2018-11-04T06:34:11.689Z,93.99
2018-11-04T06:36:40.705Z,94.35
2018-11-04T06:39:09.743Z,94.28
2018-11-04T06:41:38.657Z,94.88
2018-11-04T06:44:07.746Z,94.93
2018-11-04T06:46:36.888Z,94.75
2018-11-04T06:49:06.137Z,95.08
2018-11-04T06:51:34.859Z,94.91
2018-11-04T06:54:05.414Z,95.00
2018-11-04T06:56:34.180Z,94.74
2018-11-04T06:59:02.844Z,94.68
2018-11-04T07:01:31.524Z,94.79
2018-11-04T07:04:14.603Z,95.07
2018-11-04T07:06:44.120Z,94.63
2018-11-04T07:09:14.101Z,94.58
2018-11-04T07:11:43.041Z,94.23
2018-11-04T07:14:11.889Z,94.13
2018-11-04T07:16:41.226Z,92.72
2018-11-04T07:19:10.335Z,92.63
2018-11-04T07:21:39.571Z,92.01
2018-11-04T07:24:08.839Z,91.88
2018-11-04T07:26:38.108Z,91.68
2018-11-04T07:29:07.830Z,90.96
2018-11-04T07:31:37.335Z,90.34
2018-11-04T07:34:06.652Z,90.30
2018-11-04T07:36:35.545Z,89.87
2018-11-04T07:39:07.739Z,89.55
2018-11-04T07:41:40.295Z,89.37
2018-11-04T07:44:09.385Z,88.78
2018-11-04T07:46:38.694Z,88.16
2018-11-04T07:49:07.463Z,88.25
2018-11-04T07:51:37.932Z,88.02
2018-11-04T07:54:07.256Z,87.83
2018-11-04T07:56:36.407Z,87.96
2018-11-04T07:59:05.348Z,88.33
2018-11-04T08:01:33.990Z,87.64
2018-11-04T08:04:03.017Z,87.97
2018-11-04T08:06:32.000Z,87.71
2018-11-04T08:09:00.745Z,87.41
2018-11-04T08:11:29.875Z,87.39
2018-11-04T08:13:58.736Z,87.40
2018-11-04T08:16:27.460Z,87.15
2018-11-04T08:18:56.219Z,86.95
2018-11-04T08:21:24.957Z,86.51
2018-11-04T08:23:53.978Z,86.27
2018-11-04T08:26:22.859Z,86.64
2018-11-04T08:28:51.567Z,86.76
2018-11-04T08:31:21.697Z,86.15
2018-11-04T08:33:50.901Z,86.03
2018-11-04T08:36:20.146Z,85.87
2018-11-04T08:38:49.379Z,85.59
2018-11-04T08:41:18.621Z,85.26
2018-11-04T08:43:47.796Z,84.71
2018-11-04T08:46:17.071Z,83.99
2018-11-04T08:48:46.764Z,83.74
2018-11-04T08:51:15.501Z,83.55
2018-11-04T08:53:44.376Z,83.87
2018-11-04T08:56:14.007Z,83.01
2018-11-04T08:58:43.061Z,83.25
2018-11-04T09:01:12.177Z,82.32
2018-11-04T09:03:40.962Z,82.49
2018-11-04T09:06:10.015Z,82.61
2018-11-04T09:08:39.028Z,82.83
2018-11-04T09:11:08.435Z,81.68
2018-11-04T09:13:37.476Z,81.06
2018-11-04T09:16:06.780Z,81.61
2018-11-04T09:18:35.889Z,81.19
2018-11-04T09:21:05.122Z,81.18
2018-11-04T09:23:34.458Z,81.08
2018-11-04T09:26:03.549Z,80.76
2018-11-04T09:28:32.406Z,80.02
2018-11-04T09:31:01.739Z,80.17
2018-11-04T09:33:30.452Z,79.91
2018-11-04T09:36:00.552Z,79.07
2018-11-04T09:38:29.586Z,78.32
2018-11-04T09:40:58.456Z,78.03
2018-11-04T09:43:27.225Z,78.27
2018-11-04T09:45:56.537Z,77.10
2018-11-04T09:48:25.632Z,77.88
2018-11-04T09:50:54.421Z,77.79
2018-11-04T09:53:24.566Z,77.10
2018-11-04T09:55:53.388Z,76.97
2018-11-04T09:58:22.060Z,76.54
2018-11-04T10:00:50.862Z,76.01
2018-11-04T10:03:19.925Z,75.32
2018-11-04T10:05:48.942Z,75.29
2018-11-04T10:08:18.452Z,74.78
2018-11-04T10:10:48.636Z,74.74
2018-11-04T10:13:17.601Z,75.19
2018-11-04T10:15:47.100Z,75.56
2018-11-04T10:18:15.939Z,75.17
2018-11-04T10:20:45.812Z,74.52
2018-11-04T10:23:14.936Z,74.42
2018-11-04T10:25:44.022Z,73.99
2018-11-04T10:28:13.301Z,75.07
2018-11-04T10:30:42.212Z,75.46
2018-11-04T10:33:11.215Z,75.68
2018-11-04T10:35:40.848Z,75.33
2018-11-04T10:38:10.027Z,75.35
2018-11-04T10:40:39.465Z,73.58
2018-11-04T10:43:08.481Z,73.47
2018-11-04T10:45:37.402Z,73.58
2018-11-04T10:48:06.333Z,73.92
2018-11-04T10:50:35.226Z,73.49
2018-11-04T10:53:04.341Z,72.58
2018-11-04T10:55:33.296Z,73.28
2018-11-04T10:58:02.880Z,72.30
2018-11-04T11:00:37.806Z,72.25
2018-11-04T11:03:07.278Z,71.74
2018-11-04T11:05:36.240Z,72.00
2018-11-04T11:08:05.744Z,71.74
2018-11-04T11:10:34.786Z,70.61
2018-11-04T11:13:04.031Z,70.18
2018-11-04T11:15:32.941Z,70.08
2018-11-04T11:18:01.608Z,70.47
2018-11-04T11:20:30.647Z,70.63
2018-11-04T11:22:59.679Z,70.48
2018-11-04T11:25:29.145Z,69.23
2018-11-04T11:27:58.388Z,68.33
2018-11-04T11:30:27.602Z,68.40
2018-11-04T11:32:56.890Z,68.28
2018-11-04T11:35:26.286Z,68.57
2018-11-04T11:37:55.403Z,67.42
2018-11-04T11:40:24.456Z,66.42
2018-11-04T11:42:53.712Z,65.14
2018-11-04T11:45:22.915Z,65.52
2018-11-04T11:47:52.275Z,64.65
2018-11-04T11:50:21.446Z,63.42
2018-11-04T11:52:50.610Z,62.80
2018-11-04T11:55:20.153Z,61.68
2018-11-04T11:57:49.091Z,61.60
2018-11-04T12:00:17.986Z,60.88
2018-11-04T12:02:46.801Z,60.03
2018-11-04T12:05:15.790Z,60.57
2018-11-04T12:07:44.863Z,60.48
2018-11-04T12:10:14.368Z,61.20
2018-11-04T12:12:43.396Z,61.40
2018-11-04T12:15:13.826Z,60.08
2018-11-04T12:17:44.128Z,59.32
2018-11-04T12:20:13.651Z,57.31
2018-11-04T12:22:43.206Z,57.29
2018-11-04T12:25:12.947Z,58.34
2018-11-04T12:27:41.922Z,58.71
2018-11-04T12:30:14.390Z,58.35
2018-11-04T12:32:44.199Z,57.82
2018-11-04T12:35:14.190Z,59.09
2018-11-04T12:37:44.143Z,58.16
2018-11-04T12:40:14.212Z,54.94
2018-11-04T12:42:43.846Z,50.96
2018-11-04T12:45:14.151Z,51.72
2018-11-04T12:47:43.626Z,52.18
2018-11-04T12:50:13.341Z,51.64
2018-11-04T12:52:42.826Z,53.74
2018-11-04T12:55:11.943Z,55.55
2018-11-04T12:57:41.022Z,56.69
2018-11-04T13:00:13.348Z,58.17
2018-11-04T13:02:42.607Z,59.30
2018-11-04T13:05:11.724Z,60.60
2018-11-04T13:07:40.931Z,61.04
2018-11-04T13:10:11.623Z,61.47
2018-11-04T13:12:40.333Z,61.33
2018-11-04T13:15:12.733Z,62.44
2018-11-04T13:17:42.927Z,62.45
2018-11-04T13:20:12.138Z,62.34
2018-11-04T13:22:41.459Z,62.23
2018-11-04T13:25:10.886Z,62.48
2018-11-04T13:27:39.631Z,62.83
2018-11-04T13:30:11.777Z,63.86
2018-11-04T13:32:40.989Z,64.11
2018-11-04T13:35:10.211Z,64.29
2018-11-04T13:37:39.471Z,65.21
2018-11-04T13:40:10.181Z,65.07
2018-11-04T13:42:38.908Z,64.21
2018-11-04T13:45:09.074Z,65.55
2018-11-04T13:47:38.541Z,65.65
2018-11-04T13:50:09.728Z,66.06
2018-11-04T13:52:38.681Z,66.39
2018-11-04T13:55:08.167Z,67.01
2018-11-04T13:57:37.433Z,67.18
2018-11-04T14:00:08.432Z,66.51
2018-11-04T14:02:37.382Z,67.91
2018-11-04T14:05:07.056Z,68.02
2018-11-04T14:07:36.053Z,68.76
2018-11-04T14:10:05.306Z,68.99
2018-11-04T14:12:34.600Z,69.30
2018-11-04T14:15:03.587Z,69.83
2018-11-04T14:17:32.483Z,70.84
2018-11-04T14:20:02.250Z,71.15
2018-11-04T14:22:31.533Z,71.31
2018-11-04T14:25:00.637Z,71.71
2018-11-04T14:27:29.821Z,71.91
2018-11-04T14:29:58.623Z,72.49
2018-11-04T14:32:27.247Z,73.20
2018-11-04T14:34:56.562Z,73.12
2018-11-04T14:37:25.852Z,73.45
2018-11-04T14:39:55.073Z,73.93
2018-11-04T14:42:24.360Z,74.23
2018-11-04T14:44:53.397Z,74.47
2018-11-04T14:47:22.744Z,74.84
2018-11-04T14:49:51.603Z,75.19
2018-11-04T14:52:20.923Z,75.75
2018-11-04T14:54:50.139Z,76.39
2018-11-04T14:57:19.572Z,76.90
2018-11-04T14:59:48.796Z,77.28
2018-11-04T15:02:17.889Z,77.76
2018-11-04T15:04:47.235Z,77.79
2018-11-04T15:07:16.417Z,78.51
2018-11-04T15:09:45.591Z,78.88
2018-11-04T15:12:14.546Z,78.62
2018-11-04T15:14:43.940Z,79.00
2018-11-04T15:17:14.217Z,79.21
2018-11-04T15:19:43.323Z,79.69
2018-11-04T15:22:12.270Z,79.97
2018-11-04T15:24:42.037Z,79.97
2018-11-04T15:27:11.131Z,79.87
2018-11-04T15:29:40.220Z,80.43
2018-11-04T15:32:09.113Z,80.52
2018-11-04T15:34:38.365Z,80.95
2018-11-04T15:37:06.993Z,81.36
2018-11-04T15:39:36.184Z,81.37
2018-11-04T15:42:05.400Z,81.61
2018-11-04T15:44:34.543Z,82.11
2018-11-04T15:47:04.047Z,82.59
2018-11-04T15:49:32.962Z,83.10
2018-11-04T15:52:02.338Z,83.49
2018-11-04T15:54:31.641Z,83.94
2018-11-04T15:57:05.704Z,83.61
2018-11-04T15:59:34.828Z,84.12
2018-11-04T16:02:04.112Z,84.74
2018-11-04T16:04:44.542Z,84.67
2018-11-04T16:07:02.588Z,85.62
2018-11-04T16:09:31.695Z,85.30
2018-11-04T16:12:00.843Z,85.72
2018-11-04T16:14:30.222Z,85.59
2018-11-04T16:16:59.358Z,86.00
2018-11-04T16:19:28.923Z,85.76
2018-11-04T16:21:57.992Z,85.90
2018-11-04T16:24:28.302Z,86.16
2018-11-04T16:26:57.592Z,86.28
2018-11-04T16:29:27.522Z,86.81
2018-11-04T16:31:56.388Z,87.21
2018-11-04T16:34:26.015Z,87.01
2018-11-04T16:36:55.248Z,87.47
2018-11-04T16:39:24.442Z,88.29
2018-11-04T16:41:53.627Z,88.41
2018-11-04T16:44:23.020Z,88.74
2018-11-04T16:46:52.142Z,88.83
2018-11-04T16:49:21.507Z,89.18
2018-11-04T16:51:51.069Z,89.23
2018-11-04T16:54:19.811Z,89.57
2018-11-04T16:56:49.071Z,89.45
2018-11-04T16:59:18.252Z,89.31
2018-11-04T17:01:48.388Z,89.23
2018-11-04T17:04:17.684Z,89.32
2018-11-04T17:06:46.957Z,89.27
2018-11-04T17:09:16.100Z,89.64
2018-11-04T17:11:45.129Z,89.48
2018-11-04T17:14:14.754Z,89.45
2018-11-04T17:16:43.748Z,89.24
2018-11-04T17:19:12.887Z,89.24
2018-11-04T17:21:42.125Z,89.54
2018-11-04T17:24:11.534Z,89.86
2018-11-04T17:26:40.423Z,89.85
2018-11-04T17:29:10.042Z,90.04
2018-11-04T17:31:39.171Z,90.03
2018-11-04T17:34:08.365Z,89.83
2018-11-04T17:36:37.709Z,89.73
2018-11-04T17:39:09.227Z,90.12
2018-11-04T17:41:38.874Z,90.98
2018-11-04T17:44:09.115Z,90.53
2018-11-04T17:46:39.210Z,90.44
2018-11-04T17:49:09.454Z,90.13
2018-11-04T17:51:38.912Z,90.30
2018-11-04T17:54:08.512Z,90.32
2018-11-04T17:56:37.362Z,90.56
2018-11-04T17:59:06.805Z,90.56
2018-11-04T18:01:35.657Z,90.45
2018-11-04T18:04:04.513Z,90.63
2018-11-04T18:06:33.943Z,90.83
2018-11-04T18:09:02.937Z,90.98
2018-11-04T18:11:31.875Z,90.81
2018-11-04T18:14:00.885Z,90.87
2018-11-04T18:16:29.957Z,90.96
2018-11-04T18:18:59.163Z,91.69
2018-11-04T18:21:28.297Z,91.68
2018-11-04T18:23:57.163Z,92.14
2018-11-04T18:26:26.853Z,92.21
2018-11-04T18:28:56.099Z,92.54
2018-11-04T18:31:25.399Z,92.24
2018-11-04T18:33:54.570Z,92.36
2018-11-04T18:36:24.438Z,92.31
2018-11-04T18:38:53.923Z,92.49
2018-11-04T18:41:23.246Z,92.24
2018-11-04T18:43:52.223Z,92.37
2018-11-04T18:46:21.656Z,92.64
2018-11-04T18:48:50.801Z,93.16
2018-11-04T18:51:19.918Z,93.31
2018-11-04T18:53:49.236Z,93.01
2018-11-04T18:56:18.362Z,93.39
2018-11-04T18:58:48.430Z,93.45
2018-11-04T19:01:17.899Z,93.34
2018-11-04T19:03:47.202Z,93.63
2018-11-04T19:06:17.359Z,93.72
2018-11-04T19:08:46.477Z,93.87
2018-11-04T19:11:16.863Z,94.46
2018-11-04T19:13:45.688Z,93.99
2018-11-04T19:16:14.939Z,94.10
2018-11-04T19:18:44.493Z,93.80
2018-11-04T19:21:14.140Z,94.11
2018-11-04T19:23:43.782Z,94.59
2018-11-04T19:26:14.050Z,94.69
2018-11-04T19:28:43.258Z,94.55
2018-11-04T19:31:12.656Z,94.71
2018-11-04T19:33:41.880Z,94.92
2018-11-04T19:36:10.855Z,95.19
2018-11-04T19:38:40.578Z,95.32
2018-11-04T19:41:10.393Z,95.25
2018-11-04T19:43:40.977Z,95.50
2018-11-04T19:46:10.954Z,95.49
2018-11-04T19:48:40.025Z,95.50
2018-11-04T19:51:10.060Z,95.64
2018-11-04T19:53:39.278Z,95.53
2018-11-04T19:56:09.414Z,95.23
2018-11-04T19:58:38.699Z,95.65
2018-11-04T20:01:09.049Z,95.46
2018-11-04T20:03:38.062Z,95.42
2018-11-04T20:06:07.747Z,95.87
2018-11-04T20:08:36.666Z,96.01
2018-11-04T20:11:05.945Z,96.04
2018-11-04T20:13:40.162Z,96.13
2018-11-04T20:16:09.302Z,95.88
2018-11-04T20:18:43.534Z,95.18
2018-11-04T20:21:12.590Z,95.22
2018-11-04T20:23:41.722Z,95.12
2018-11-04T20:26:13.018Z,95.10
2018-11-04T20:28:42.567Z,95.56
2018-11-04T20:31:16.519Z,95.38
2018-11-04T20:33:47.984Z,95.78
2018-11-04T20:36:20.185Z,96.00
2018-11-04T20:38:54.434Z,95.92
2018-11-04T20:41:29.293Z,95.40
2018-11-04T20:43:59.079Z,95.12
2018-11-04T20:46:28.224Z,95.07
2018-11-04T20:49:02.508Z,95.39
2018-11-04T20:51:31.478Z,95.06
2018-11-04T20:54:00.781Z,94.81
2018-11-04T20:56:35.064Z,95.07
2018-11-04T20:59:04.830Z,95.37
2018-11-04T21:01:34.274Z,95.29
2018-11-04T21:04:03.561Z,95.42
2018-11-04T21:06:33.367Z,95.43
2018-11-04T21:09:02.648Z,95.74
2018-11-04T21:11:32.040Z,96.22
2018-11-04T21:14:01.295Z,96.37
2018-11-04T21:16:30.605Z,96.49
2018-11-04T21:18:59.746Z,96.23
2018-11-04T21:21:28.581Z,95.55
2018-11-04T21:23:58.263Z,96.02
2018-11-04T21:26:27.298Z,96.06
2018-11-04T21:28:56.831Z,96.24
2018-11-04T21:31:25.766Z,96.45
2018-11-04T21:33:54.950Z,96.62
2018-11-04T21:36:26.397Z,97.10
2018-11-04T21:38:55.753Z,97.01
2018-11-04T21:41:25.623Z,96.84
2018-11-04T21:43:55.013Z,96.95
2018-11-04T21:46:24.049Z,96.91
2018-11-04T21:48:53.523Z,96.84
2018-11-04T21:51:22.398Z,96.18
2018-11-04T21:53:51.575Z,95.82
2018-11-04T21:56:20.731Z,95.84
2018-11-04T21:58:49.352Z,96.26
2018-11-04T22:01:18.562Z,96.45
2018-11-04T22:03:47.838Z,96.63
2018-11-04T22:06:16.985Z,96.12
2018-11-04T22:08:46.070Z,96.20
2018-11-04T22:11:15.804Z,95.80
2018-11-04T22:13:44.582Z,95.48
2018-11-04T22:16:14.895Z,95.95
2018-11-04T22:18:43.570Z,95.35
2018-11-04T22:21:12.518Z,95.01
2018-11-04T22:23:42.177Z,95.64
2018-11-04T22:26:11.169Z,95.42
2018-11-04T22:28:41.166Z,95.42
2018-11-04T22:31:10.154Z,95.46
2018-11-04T22:33:40.222Z,95.68
2018-11-04T22:36:09.549Z,95.34
2018-11-04T22:38:38.276Z,95.54
2018-11-04T22:41:07.198Z,95.33
2018-11-04T22:43:36.380Z,95.44
2018-11-04T22:46:05.700Z,95.34
2018-11-04T22:48:34.624Z,95.54
2018-11-04T22:51:03.878Z,96.06
2018-11-04T22:53:32.940Z,95.88
2018-11-04T22:56:02.377Z,95.84
2018-11-04T22:58:31.406Z,96.26
2018-11-04T23:01:01.220Z,95.98
2018-11-04T23:03:29.913Z,96.50
2018-11-04T23:06:02.995Z,96.72
2018-11-04T23:08:32.861Z,96.53
2018-11-04T23:11:01.599Z,96.32
2018-11-04T23:13:30.645Z,96.78
2018-11-04T23:15:59.543Z,96.97
2018-11-04T23:18:28.471Z,96.58
2018-11-04T23:20:57.390Z,96.82
2018-11-04T23:23:26.483Z,96.83
2018-11-04T23:25:55.563Z,96.92
2018-11-04T23:28:24.360Z,96.63
2018-11-04T23:30:53.299Z,96.50
2018-11-04T23:33:22.570Z,95.84
2018-11-04T23:35:51.383Z,96.23
2018-11-04T23:38:20.169Z,95.81
2018-11-04T23:40:49.415Z,96.11
2018-11-04T23:43:18.390Z,97.10
2018-11-04T23:45:48.835Z,97.07
2018-11-04T23:48:17.613Z,97.51
2018-11-04T23:50:46.248Z,97.13
2018-11-04T23:53:15.515Z,96.73
2018-11-04T23:55:44.628Z,96.74
2018-11-04T23:58:13.820Z,97.31
